Millington Regional Jetport Airport
KNQA : now visible

Airfield :











YOU CAN JOIN US ON...

 
LOGIN :

Register | Disclaimer

   EN    FR    IT 

 









Legend :    VFR   Marginal VFR   IFR   Intensive IFR   Very Intensive IFR
Visi :
Ceiling :
>= 8 km
>= 3000ft
5 to 8 km
1000 to 3000 ft
1500m to 5 km
500 to 1000 ft
800 to 1500m
200 to 500 ft
< 800m
< 200 ft
Symbols :   Thunderstorms  Fog  Heavy snow  Heavy precipitations  Wind > 20 kt






- Airport Elevation : 320 ft


KNQA - Millington Regional Jetport

CURRENT METAR :
  • 291650Z 33008KT 10SM OVC21 23/19 A3005

EXPIRED METARs :
  • 291550Z 32008KT 10SM SCT016 OVC023 23/19 A3004
  • 291450Z 27007KT 10SM BKN016 BKN021 22/19 A3004
  • 291420Z 28003KT 10SM OVC011 21/19 A3004 RMK A01
  • 291415Z 24004KT 10SM OVC011 21/19 A3004 RMK A01

TAF N/A
KZME FIR / North America



MET'MAP, your aeronautical weather chart ! - Copyright ORBIFLY December 2007 - Disclaimer

ORBIFLY MET'MAP TEAM :

Programming & Development : Alexandra Zaïnal
Concept & original design : Baudouin d'Aumeries
Assistance for programming : Marc-Olivier Méhu
Technical & hardware support : Manuel Goepfert

Contact : metmap@orbifly.com




SOURCES & CREDITS :

   NOAA       Earth
Advisory